sensor_id;sensor_type;location;lat;lon;timestamp;P1;durP1;ratioP1;P2;durP2;ratioP2
76202;SDS011;64985;46.364;17.008;2023-10-19T00:00:41;31.92;;;20.75;;
76202;SDS011;64985;46.364;17.008;2023-10-19T00:03:46;30.38;;;21.02;;
76202;SDS011;64985;46.364;17.008;2023-10-19T00:06:52;32.05;;;21.20;;
76202;SDS011;64985;46.364;17.008;2023-10-19T00:09:57;31.90;;;21.67;;
76202;SDS011;64985;46.364;17.008;2023-10-19T00:13:00;33.25;;;21.45;;
76202;SDS011;64985;46.364;17.008;2023-10-19T00:16:06;33.53;;;22.15;;
76202;SDS011;64985;46.364;17.008;2023-10-19T00:19:25;32.13;;;22.35;;
76202;SDS011;64985;46.364;17.008;2023-10-19T00:22:30;32.83;;;23.15;;
76202;SDS011;64985;46.364;17.008;2023-10-19T00:25:37;35.15;;;23.30;;
76202;SDS011;64985;46.364;17.008;2023-10-19T00:28:43;41.03;;;23.73;;
76202;SDS011;64985;46.364;17.008;2023-10-19T00:31:48;32.78;;;22.42;;
76202;SDS011;64985;46.364;17.008;2023-10-19T00:34:51;34.25;;;22.65;;
76202;SDS011;64985;46.364;17.008;2023-10-19T00:37:54;32.03;;;23.25;;
76202;SDS011;64985;46.364;17.008;2023-10-19T00:41:13;32.70;;;23.33;;
76202;SDS011;64985;46.364;17.008;2023-10-19T00:44:22;32.00;;;22.60;;
76202;SDS011;64985;46.364;17.008;2023-10-19T00:47:27;33.58;;;23.42;;
76202;SDS011;64985;46.364;17.008;2023-10-19T00:50:35;34.30;;;23.55;;
76202;SDS011;64985;46.364;17.008;2023-10-19T00:53:38;31.30;;;22.45;;
76202;SDS011;64985;46.364;17.008;2023-10-19T00:56:42;31.70;;;22.58;;
76202;SDS011;64985;46.364;17.008;2023-10-19T00:59:50;30.45;;;22.55;;
76202;SDS011;64985;46.364;17.008;2023-10-19T01:02:57;33.65;;;22.40;;
76202;SDS011;64985;46.364;17.008;2023-10-19T01:09:12;33.65;;;22.55;;
76202;SDS011;64985;46.364;17.008;2023-10-19T01:12:16;31.58;;;22.23;;
76202;SDS011;64985;46.364;17.008;2023-10-19T01:15:34;37.50;;;23.40;;
76202;SDS011;64985;46.364;17.008;2023-10-19T01:18:39;33.45;;;23.50;;
76202;SDS011;64985;46.364;17.008;2023-10-19T01:21:44;31.90;;;23.58;;
76202;SDS011;64985;46.364;17.008;2023-10-19T01:24:53;38.35;;;24.90;;
76202;SDS011;64985;46.364;17.008;2023-10-19T01:27:57;35.70;;;23.83;;
76202;SDS011;64985;46.364;17.008;2023-10-19T01:30:59;34.38;;;24.25;;
76202;SDS011;64985;46.364;17.008;2023-10-19T01:34:08;33.67;;;24.00;;
76202;SDS011;64985;46.364;17.008;2023-10-19T01:37:11;35.45;;;24.45;;
76202;SDS011;64985;46.364;17.008;2023-10-19T01:40:14;38.25;;;24.70;;
76202;SDS011;64985;46.364;17.008;2023-10-19T01:43:22;37.78;;;25.05;;
76202;SDS011;64985;46.364;17.008;2023-10-19T01:46:27;35.63;;;25.17;;
76202;SDS011;64985;46.364;17.008;2023-10-19T01:49:36;32.25;;;23.92;;
76202;SDS011;64985;46.364;17.008;2023-10-19T01:52:39;35.78;;;25.08;;
76202;SDS011;64985;46.364;17.008;2023-10-19T01:55:42;36.67;;;25.50;;
76202;SDS011;64985;46.364;17.008;2023-10-19T01:58:46;38.53;;;24.65;;
76202;SDS011;64985;46.364;17.008;2023-10-19T02:01:49;34.40;;;24.42;;
76202;SDS011;64985;46.364;17.008;2023-10-19T02:04:53;36.92;;;25.05;;
76202;SDS011;64985;46.364;17.008;2023-10-19T02:07:55;38.60;;;24.77;;
76202;SDS011;64985;46.364;17.008;2023-10-19T02:10:57;39.75;;;24.77;;
76202;SDS011;64985;46.364;17.008;2023-10-19T02:14:04;35.80;;;25.35;;
76202;SDS011;64985;46.364;17.008;2023-10-19T02:17:15;37.95;;;25.77;;
76202;SDS011;64985;46.364;17.008;2023-10-19T02:20:19;37.95;;;26.73;;
76202;SDS011;64985;46.364;17.008;2023-10-19T02:23:41;35.88;;;25.15;;
76202;SDS011;64985;46.364;17.008;2023-10-19T02:26:44;39.85;;;26.60;;
76202;SDS011;64985;46.364;17.008;2023-10-19T02:29:50;42.42;;;27.48;;
76202;SDS011;64985;46.364;17.008;2023-10-19T02:32:52;41.20;;;26.60;;
76202;SDS011;64985;46.364;17.008;2023-10-19T02:35:55;39.65;;;26.95;;
76202;SDS011;64985;46.364;17.008;2023-10-19T02:39:00;40.03;;;26.83;;
76202;SDS011;64985;46.364;17.008;2023-10-19T02:42:09;38.17;;;26.98;;
76202;SDS011;64985;46.364;17.008;2023-10-19T02:45:12;39.00;;;26.10;;
76202;SDS011;64985;46.364;17.008;2023-10-19T02:48:16;38.10;;;26.55;;
76202;SDS011;64985;46.364;17.008;2023-10-19T02:51:19;39.80;;;26.73;;
76202;SDS011;64985;46.364;17.008;2023-10-19T02:54:22;36.72;;;25.08;;
76202;SDS011;64985;46.364;17.008;2023-10-19T02:57:26;37.45;;;25.02;;
76202;SDS011;64985;46.364;17.008;2023-10-19T03:00:32;37.95;;;25.35;;
76202;SDS011;64985;46.364;17.008;2023-10-19T03:03:38;42.13;;;26.17;;
76202;SDS011;64985;46.364;17.008;2023-10-19T03:06:40;39.88;;;28.48;;
76202;SDS011;64985;46.364;17.008;2023-10-19T03:09:43;40.38;;;29.52;;
76202;SDS011;64985;46.364;17.008;2023-10-19T03:12:51;47.65;;;29.35;;
76202;SDS011;64985;46.364;17.008;2023-10-19T03:15:54;45.35;;;31.17;;
76202;SDS011;64985;46.364;17.008;2023-10-19T03:18:56;48.38;;;31.23;;
76202;SDS011;64985;46.364;17.008;2023-10-19T03:21:59;44.95;;;31.30;;
76202;SDS011;64985;46.364;17.008;2023-10-19T03:25:02;47.65;;;32.00;;
76202;SDS011;64985;46.364;17.008;2023-10-19T03:28:39;44.95;;;31.25;;
76202;SDS011;64985;46.364;17.008;2023-10-19T03:31:42;46.63;;;31.40;;
76202;SDS011;64985;46.364;17.008;2023-10-19T03:34:45;46.75;;;32.28;;
76202;SDS011;64985;46.364;17.008;2023-10-19T03:37:52;47.17;;;32.08;;
76202;SDS011;64985;46.364;17.008;2023-10-19T03:40:54;46.05;;;31.77;;
76202;SDS011;64985;46.364;17.008;2023-10-19T03:44:01;47.53;;;31.40;;
76202;SDS011;64985;46.364;17.008;2023-10-19T03:47:05;48.70;;;32.47;;
76202;SDS011;64985;46.364;17.008;2023-10-19T03:50:13;50.95;;;34.45;;
76202;SDS011;64985;46.364;17.008;2023-10-19T03:53:22;51.17;;;34.38;;
76202;SDS011;64985;46.364;17.008;2023-10-19T03:56:25;53.20;;;34.60;;
76202;SDS011;64985;46.364;17.008;2023-10-19T03:59:27;50.08;;;33.13;;
76202;SDS011;64985;46.364;17.008;2023-10-19T04:02:35;51.65;;;35.58;;
76202;SDS011;64985;46.364;17.008;2023-10-19T04:05:40;49.28;;;34.50;;
76202;SDS011;64985;46.364;17.008;2023-10-19T04:08:43;53.08;;;36.15;;
76202;SDS011;64985;46.364;17.008;2023-10-19T04:11:52;55.33;;;36.83;;
76202;SDS011;64985;46.364;17.008;2023-10-19T04:14:55;52.28;;;35.15;;
76202;SDS011;64985;46.364;17.008;2023-10-19T04:17:58;52.58;;;35.20;;
76202;SDS011;64985;46.364;17.008;2023-10-19T04:21:02;53.72;;;35.65;;
76202;SDS011;64985;46.364;17.008;2023-10-19T04:24:05;50.10;;;35.85;;
76202;SDS011;64985;46.364;17.008;2023-10-19T04:27:08;55.22;;;37.05;;
76202;SDS011;64985;46.364;17.008;2023-10-19T04:30:15;55.25;;;36.30;;
76202;SDS011;64985;46.364;17.008;2023-10-19T04:33:18;55.13;;;36.22;;
76202;SDS011;64985;46.364;17.008;2023-10-19T04:36:21;53.83;;;35.60;;
76202;SDS011;64985;46.364;17.008;2023-10-19T04:39:23;55.13;;;36.50;;
76202;SDS011;64985;46.364;17.008;2023-10-19T04:42:26;58.00;;;39.38;;
76202;SDS011;64985;46.364;17.008;2023-10-19T04:45:29;53.90;;;36.47;;
76202;SDS011;64985;46.364;17.008;2023-10-19T04:48:31;53.33;;;34.25;;
76202;SDS011;64985;46.364;17.008;2023-10-19T04:51:34;54.00;;;36.08;;
76202;SDS011;64985;46.364;17.008;2023-10-19T04:54:40;51.15;;;36.92;;
76202;SDS011;64985;46.364;17.008;2023-10-19T04:57:44;53.65;;;36.03;;
76202;SDS011;64985;46.364;17.008;2023-10-19T05:00:46;53.97;;;36.85;;
76202;SDS011;64985;46.364;17.008;2023-10-19T05:03:48;55.33;;;37.53;;
76202;SDS011;64985;46.364;17.008;2023-10-19T05:06:51;49.35;;;36.10;;
76202;SDS011;64985;46.364;17.008;2023-10-19T05:09:53;54.60;;;36.70;;
76202;SDS011;64985;46.364;17.008;2023-10-19T05:12:56;55.35;;;36.35;;
76202;SDS011;64985;46.364;17.008;2023-10-19T05:15:58;56.75;;;37.50;;
76202;SDS011;64985;46.364;17.008;2023-10-19T05:19:01;52.78;;;37.30;;
76202;SDS011;64985;46.364;17.008;2023-10-19T05:22:06;53.67;;;37.70;;
76202;SDS011;64985;46.364;17.008;2023-10-19T05:25:10;56.53;;;38.40;;
76202;SDS011;64985;46.364;17.008;2023-10-19T05:28:12;54.72;;;38.60;;
76202;SDS011;64985;46.364;17.008;2023-10-19T05:31:16;54.55;;;38.42;;
76202;SDS011;64985;46.364;17.008;2023-10-19T05:34:18;60.83;;;40.05;;
76202;SDS011;64985;46.364;17.008;2023-10-19T05:37:23;57.15;;;39.22;;
76202;SDS011;64985;46.364;17.008;2023-10-19T05:40:27;59.85;;;39.53;;
76202;SDS011;64985;46.364;17.008;2023-10-19T05:43:32;55.60;;;39.97;;
76202;SDS011;64985;46.364;17.008;2023-10-19T05:46:36;56.85;;;38.80;;
76202;SDS011;64985;46.364;17.008;2023-10-19T05:49:40;53.53;;;37.80;;
76202;SDS011;64985;46.364;17.008;2023-10-19T05:52:43;55.35;;;38.15;;
76202;SDS011;64985;46.364;17.008;2023-10-19T05:55:45;54.17;;;37.47;;
76202;SDS011;64985;46.364;17.008;2023-10-19T05:58:48;54.20;;;36.47;;
76202;SDS011;64985;46.364;17.008;2023-10-19T06:01:52;52.88;;;36.42;;
76202;SDS011;64985;46.364;17.008;2023-10-19T06:04:55;55.55;;;35.78;;
76202;SDS011;64985;46.364;17.008;2023-10-19T06:07:59;49.17;;;34.95;;
76202;SDS011;64985;46.364;17.008;2023-10-19T06:11:01;55.17;;;35.78;;
76202;SDS011;64985;46.364;17.008;2023-10-19T06:14:08;53.85;;;35.63;;
76202;SDS011;64985;46.364;17.008;2023-10-19T06:17:11;49.95;;;34.78;;
76202;SDS011;64985;46.364;17.008;2023-10-19T06:20:20;48.05;;;34.35;;
76202;SDS011;64985;46.364;17.008;2023-10-19T06:23:26;51.28;;;34.88;;
76202;SDS011;64985;46.364;17.008;2023-10-19T06:26:28;48.67;;;33.00;;
76202;SDS011;64985;46.364;17.008;2023-10-19T06:29:30;53.35;;;32.78;;
76202;SDS011;64985;46.364;17.008;2023-10-19T06:32:33;43.95;;;31.27;;
76202;SDS011;64985;46.364;17.008;2023-10-19T06:35:35;43.95;;;30.75;;
76202;SDS011;64985;46.364;17.008;2023-10-19T06:38:38;42.35;;;29.30;;
76202;SDS011;64985;46.364;17.008;2023-10-19T06:41:41;41.58;;;28.45;;
76202;SDS011;64985;46.364;17.008;2023-10-19T06:44:44;43.08;;;28.33;;
76202;SDS011;64985;46.364;17.008;2023-10-19T06:47:46;37.70;;;26.83;;
76202;SDS011;64985;46.364;17.008;2023-10-19T06:50:50;40.40;;;27.40;;
76202;SDS011;64985;46.364;17.008;2023-10-19T06:53:53;37.20;;;26.02;;
76202;SDS011;64985;46.364;17.008;2023-10-19T06:56:55;38.50;;;26.48;;
76202;SDS011;64985;46.364;17.008;2023-10-19T06:59:58;36.58;;;27.27;;
76202;SDS011;64985;46.364;17.008;2023-10-19T07:03:01;35.35;;;25.92;;
76202;SDS011;64985;46.364;17.008;2023-10-19T07:06:05;34.85;;;25.67;;
76202;SDS011;64985;46.364;17.008;2023-10-19T07:09:14;37.72;;;25.30;;
76202;SDS011;64985;46.364;17.008;2023-10-19T07:12:16;34.38;;;24.65;;
76202;SDS011;64985;46.364;17.008;2023-10-19T07:15:21;32.75;;;22.58;;
76202;SDS011;64985;46.364;17.008;2023-10-19T07:18:25;32.47;;;22.23;;
76202;SDS011;64985;46.364;17.008;2023-10-19T07:21:27;34.47;;;22.23;;
76202;SDS011;64985;46.364;17.008;2023-10-19T07:24:33;30.77;;;21.92;;
76202;SDS011;64985;46.364;17.008;2023-10-19T07:27:38;34.83;;;22.02;;
76202;SDS011;64985;46.364;17.008;2023-10-19T07:30:40;33.13;;;22.92;;
76202;SDS011;64985;46.364;17.008;2023-10-19T07:33:43;29.88;;;21.42;;
76202;SDS011;64985;46.364;17.008;2023-10-19T07:36:51;27.60;;;20.42;;
76202;SDS011;64985;46.364;17.008;2023-10-19T07:39:55;33.28;;;21.30;;
76202;SDS011;64985;46.364;17.008;2023-10-19T07:42:59;27.52;;;19.23;;
76202;SDS011;64985;46.364;17.008;2023-10-19T07:46:01;26.02;;;18.05;;
76202;SDS011;64985;46.364;17.008;2023-10-19T07:49:03;27.50;;;18.42;;
76202;SDS011;64985;46.364;17.008;2023-10-19T07:52:06;30.80;;;18.80;;
76202;SDS011;64985;46.364;17.008;2023-10-19T07:55:09;21.80;;;16.13;;
76202;SDS011;64985;46.364;17.008;2023-10-19T07:58:12;23.42;;;15.65;;
76202;SDS011;64985;46.364;17.008;2023-10-19T08:01:14;24.90;;;15.75;;
76202;SDS011;64985;46.364;17.008;2023-10-19T08:04:17;23.58;;;14.70;;
76202;SDS011;64985;46.364;17.008;2023-10-19T08:07:19;23.85;;;15.32;;
76202;SDS011;64985;46.364;17.008;2023-10-19T08:10:21;25.77;;;17.10;;
76202;SDS011;64985;46.364;17.008;2023-10-19T08:13:24;20.75;;;14.05;;
76202;SDS011;64985;46.364;17.008;2023-10-19T08:16:32;21.38;;;14.85;;
76202;SDS011;64985;46.364;17.008;2023-10-19T08:19:34;26.08;;;15.15;;
76202;SDS011;64985;46.364;17.008;2023-10-19T08:22:37;21.60;;;14.93;;
76202;SDS011;64985;46.364;17.008;2023-10-19T08:25:40;21.58;;;14.35;;
76202;SDS011;64985;46.364;17.008;2023-10-19T08:28:56;18.60;;;12.98;;
76202;SDS011;64985;46.364;17.008;2023-10-19T08:32:00;17.48;;;11.70;;
76202;SDS011;64985;46.364;17.008;2023-10-19T08:35:03;20.33;;;13.18;;
76202;SDS011;64985;46.364;17.008;2023-10-19T08:38:06;20.05;;;12.95;;
76202;SDS011;64985;46.364;17.008;2023-10-19T08:41:14;18.05;;;13.20;;
76202;SDS011;64985;46.364;17.008;2023-10-19T08:44:17;23.63;;;14.27;;
76202;SDS011;64985;46.364;17.008;2023-10-19T08:47:19;21.58;;;12.45;;
76202;SDS011;64985;46.364;17.008;2023-10-19T08:50:29;18.65;;;12.40;;
76202;SDS011;64985;46.364;17.008;2023-10-19T08:53:38;23.20;;;12.35;;
76202;SDS011;64985;46.364;17.008;2023-10-19T08:56:42;18.08;;;12.63;;
76202;SDS011;64985;46.364;17.008;2023-10-19T08:59:45;16.73;;;11.13;;
76202;SDS011;64985;46.364;17.008;2023-10-19T09:02:48;16.70;;;11.60;;
76202;SDS011;64985;46.364;17.008;2023-10-19T09:05:50;16.33;;;10.23;;
76202;SDS011;64985;46.364;17.008;2023-10-19T09:08:53;15.88;;;9.52;;
76202;SDS011;64985;46.364;17.008;2023-10-19T09:11:56;21.15;;;10.43;;
76202;SDS011;64985;46.364;17.008;2023-10-19T09:14:58;14.73;;;10.25;;
76202;SDS011;64985;46.364;17.008;2023-10-19T09:18:17;17.77;;;9.60;;
76202;SDS011;64985;46.364;17.008;2023-10-19T09:21:20;16.58;;;9.55;;
76202;SDS011;64985;46.364;17.008;2023-10-19T09:24:25;16.10;;;9.88;;
76202;SDS011;64985;46.364;17.008;2023-10-19T09:27:29;14.95;;;9.23;;
76202;SDS011;64985;46.364;17.008;2023-10-19T09:30:31;14.82;;;9.00;;
76202;SDS011;64985;46.364;17.008;2023-10-19T09:33:35;14.27;;;8.77;;
76202;SDS011;64985;46.364;17.008;2023-10-19T09:36:37;21.60;;;8.95;;
76202;SDS011;64985;46.364;17.008;2023-10-19T09:39:39;11.55;;;8.40;;
76202;SDS011;64985;46.364;17.008;2023-10-19T09:42:45;12.20;;;8.77;;
76202;SDS011;64985;46.364;17.008;2023-10-19T09:45:51;12.20;;;9.05;;
76202;SDS011;64985;46.364;17.008;2023-10-19T09:48:58;12.15;;;8.23;;
76202;SDS011;64985;46.364;17.008;2023-10-19T09:52:03;10.82;;;8.30;;
76202;SDS011;64985;46.364;17.008;2023-10-19T09:55:12;13.88;;;8.60;;
76202;SDS011;64985;46.364;17.008;2023-10-19T09:58:17;15.98;;;8.20;;
76202;SDS011;64985;46.364;17.008;2023-10-19T10:01:25;11.73;;;8.63;;
76202;SDS011;64985;46.364;17.008;2023-10-19T10:04:32;13.55;;;9.10;;
76202;SDS011;64985;46.364;17.008;2023-10-19T10:07:35;15.93;;;8.95;;
76202;SDS011;64985;46.364;17.008;2023-10-19T10:10:43;21.25;;;8.82;;
76202;SDS011;64985;46.364;17.008;2023-10-19T10:13:46;12.02;;;8.30;;
76202;SDS011;64985;46.364;17.008;2023-10-19T10:17:02;14.05;;;9.43;;
76202;SDS011;64985;46.364;17.008;2023-10-19T10:23:20;12.32;;;8.15;;
76202;SDS011;64985;46.364;17.008;2023-10-19T10:26:25;13.80;;;7.45;;
76202;SDS011;64985;46.364;17.008;2023-10-19T10:29:31;13.90;;;7.78;;
76202;SDS011;64985;46.364;17.008;2023-10-19T10:32:50;12.45;;;7.20;;
76202;SDS011;64985;46.364;17.008;2023-10-19T10:35:58;8.88;;;6.75;;
76202;SDS011;64985;46.364;17.008;2023-10-19T10:39:01;14.27;;;6.55;;
76202;SDS011;64985;46.364;17.008;2023-10-19T10:42:07;9.40;;;6.82;;
76202;SDS011;64985;46.364;17.008;2023-10-19T10:45:18;13.32;;;7.15;;
76202;SDS011;64985;46.364;17.008;2023-10-19T10:48:22;11.20;;;6.65;;
76202;SDS011;64985;46.364;17.008;2023-10-19T10:51:26;8.73;;;6.13;;
76202;SDS011;64985;46.364;17.008;2023-10-19T10:54:31;10.32;;;6.32;;
76202;SDS011;64985;46.364;17.008;2023-10-19T10:57:34;8.93;;;6.28;;
76202;SDS011;64985;46.364;17.008;2023-10-19T11:00:43;11.90;;;6.70;;
76202;SDS011;64985;46.364;17.008;2023-10-19T11:03:47;10.52;;;6.50;;
76202;SDS011;64985;46.364;17.008;2023-10-19T11:06:50;14.40;;;6.95;;
76202;SDS011;64985;46.364;17.008;2023-10-19T11:09:55;17.80;;;6.22;;
76202;SDS011;64985;46.364;17.008;2023-10-19T11:13:04;17.95;;;6.63;;
76202;SDS011;64985;46.364;17.008;2023-10-19T11:16:10;10.75;;;6.30;;
76202;SDS011;64985;46.364;17.008;2023-10-19T11:19:12;11.10;;;6.03;;
76202;SDS011;64985;46.364;17.008;2023-10-19T11:22:14;7.93;;;5.72;;
76202;SDS011;64985;46.364;17.008;2023-10-19T11:25:17;8.48;;;5.80;;
76202;SDS011;64985;46.364;17.008;2023-10-19T11:28:20;13.60;;;5.88;;
76202;SDS011;64985;46.364;17.008;2023-10-19T11:31:23;9.32;;;5.57;;
76202;SDS011;64985;46.364;17.008;2023-10-19T11:34:26;8.43;;;5.40;;
76202;SDS011;64985;46.364;17.008;2023-10-19T11:37:42;8.40;;;5.55;;
76202;SDS011;64985;46.364;17.008;2023-10-19T11:40:57;8.52;;;5.53;;
76202;SDS011;64985;46.364;17.008;2023-10-19T11:43:59;8.50;;;5.10;;
76202;SDS011;64985;46.364;17.008;2023-10-19T11:47:02;17.30;;;5.70;;
76202;SDS011;64985;46.364;17.008;2023-10-19T11:50:05;9.57;;;5.45;;
76202;SDS011;64985;46.364;17.008;2023-10-19T11:53:08;13.30;;;5.32;;
76202;SDS011;64985;46.364;17.008;2023-10-19T11:56:12;8.93;;;5.20;;
76202;SDS011;64985;46.364;17.008;2023-10-19T11:59:15;10.30;;;5.13;;
76202;SDS011;64985;46.364;17.008;2023-10-19T12:02:17;14.45;;;5.00;;
76202;SDS011;64985;46.364;17.008;2023-10-19T12:05:20;11.32;;;5.25;;
76202;SDS011;64985;46.364;17.008;2023-10-19T12:08:23;8.68;;;5.20;;
76202;SDS011;64985;46.364;17.008;2023-10-19T12:11:25;7.70;;;5.45;;
76202;SDS011;64985;46.364;17.008;2023-10-19T12:14:27;15.65;;;6.20;;
76202;SDS011;64985;46.364;17.008;2023-10-19T12:17:31;12.93;;;5.88;;
76202;SDS011;64985;46.364;17.008;2023-10-19T12:20:33;16.73;;;6.07;;
76202;SDS011;64985;46.364;17.008;2023-10-19T12:23:40;15.02;;;5.78;;
76202;SDS011;64985;46.364;17.008;2023-10-19T12:26:45;10.82;;;5.78;;
76202;SDS011;64985;46.364;17.008;2023-10-19T12:29:48;16.55;;;5.63;;
76202;SDS011;64985;46.364;17.008;2023-10-19T12:32:52;20.65;;;5.78;;
76202;SDS011;64985;46.364;17.008;2023-10-19T12:35:54;8.70;;;5.82;;
76202;SDS011;64985;46.364;17.008;2023-10-19T12:38:59;12.73;;;5.80;;
76202;SDS011;64985;46.364;17.008;2023-10-19T12:42:01;12.35;;;5.80;;
76202;SDS011;64985;46.364;17.008;2023-10-19T12:45:05;9.10;;;5.30;;
76202;SDS011;64985;46.364;17.008;2023-10-19T12:48:09;11.07;;;5.72;;
76202;SDS011;64985;46.364;17.008;2023-10-19T12:51:12;14.63;;;5.60;;
76202;SDS011;64985;46.364;17.008;2023-10-19T12:54:16;12.43;;;5.40;;
76202;SDS011;64985;46.364;17.008;2023-10-19T12:57:19;12.52;;;5.47;;
76202;SDS011;64985;46.364;17.008;2023-10-19T13:00:22;9.23;;;5.30;;
76202;SDS011;64985;46.364;17.008;2023-10-19T13:03:37;11.30;;;5.75;;
76202;SDS011;64985;46.364;17.008;2023-10-19T13:06:42;8.13;;;5.07;;
76202;SDS011;64985;46.364;17.008;2023-10-19T13:09:44;13.20;;;5.15;;
76202;SDS011;64985;46.364;17.008;2023-10-19T13:12:46;12.32;;;5.32;;
76202;SDS011;64985;46.364;17.008;2023-10-19T13:15:49;13.57;;;5.30;;
76202;SDS011;64985;46.364;17.008;2023-10-19T13:18:52;11.63;;;5.75;;
76202;SDS011;64985;46.364;17.008;2023-10-19T13:21:54;12.23;;;5.32;;
76202;SDS011;64985;46.364;17.008;2023-10-19T13:24:56;14.15;;;5.38;;
76202;SDS011;64985;46.364;17.008;2023-10-19T13:27:59;19.30;;;5.82;;
76202;SDS011;64985;46.364;17.008;2023-10-19T13:31:01;8.90;;;4.80;;
76202;SDS011;64985;46.364;17.008;2023-10-19T13:34:05;10.10;;;5.30;;
76202;SDS011;64985;46.364;17.008;2023-10-19T13:37:12;8.50;;;5.22;;
76202;SDS011;64985;46.364;17.008;2023-10-19T13:40:14;7.93;;;4.97;;
76202;SDS011;64985;46.364;17.008;2023-10-19T13:43:16;8.05;;;4.65;;
76202;SDS011;64985;46.364;17.008;2023-10-19T13:46:20;7.75;;;5.20;;
76202;SDS011;64985;46.364;17.008;2023-10-19T13:49:25;8.85;;;5.38;;
76202;SDS011;64985;46.364;17.008;2023-10-19T13:52:27;10.52;;;5.20;;
76202;SDS011;64985;46.364;17.008;2023-10-19T13:55:30;9.00;;;4.85;;
76202;SDS011;64985;46.364;17.008;2023-10-19T13:58:32;14.55;;;5.45;;
76202;SDS011;64985;46.364;17.008;2023-10-19T14:01:35;7.70;;;5.03;;
76202;SDS011;64985;46.364;17.008;2023-10-19T14:04:37;7.68;;;5.38;;
76202;SDS011;64985;46.364;17.008;2023-10-19T14:07:39;15.18;;;5.22;;
76202;SDS011;64985;46.364;17.008;2023-10-19T14:10:42;7.75;;;5.28;;
76202;SDS011;64985;46.364;17.008;2023-10-19T14:13:45;8.35;;;5.88;;
76202;SDS011;64985;46.364;17.008;2023-10-19T14:16:47;10.20;;;5.40;;
76202;SDS011;64985;46.364;17.008;2023-10-19T14:19:52;9.57;;;5.70;;
76202;SDS011;64985;46.364;17.008;2023-10-19T14:22:54;9.73;;;5.45;;
76202;SDS011;64985;46.364;17.008;2023-10-19T14:25:57;9.30;;;5.05;;
76202;SDS011;64985;46.364;17.008;2023-10-19T14:28:59;9.95;;;5.25;;
76202;SDS011;64985;46.364;17.008;2023-10-19T14:32:03;11.63;;;5.60;;
76202;SDS011;64985;46.364;17.008;2023-10-19T14:35:05;8.07;;;5.28;;
76202;SDS011;64985;46.364;17.008;2023-10-19T14:38:10;11.32;;;5.53;;
76202;SDS011;64985;46.364;17.008;2023-10-19T14:41:15;8.32;;;5.60;;
76202;SDS011;64985;46.364;17.008;2023-10-19T14:44:18;12.30;;;5.70;;
76202;SDS011;64985;46.364;17.008;2023-10-19T14:47:20;10.45;;;5.68;;
76202;SDS011;64985;46.364;17.008;2023-10-19T14:50:22;8.95;;;5.75;;
76202;SDS011;64985;46.364;17.008;2023-10-19T14:53:25;10.35;;;5.65;;
76202;SDS011;64985;46.364;17.008;2023-10-19T14:56:28;11.88;;;6.22;;
76202;SDS011;64985;46.364;17.008;2023-10-19T14:59:30;16.00;;;6.60;;
76202;SDS011;64985;46.364;17.008;2023-10-19T15:02:35;13.00;;;6.32;;
76202;SDS011;64985;46.364;17.008;2023-10-19T15:05:38;13.00;;;6.90;;
76202;SDS011;64985;46.364;17.008;2023-10-19T15:08:42;10.40;;;6.65;;
76202;SDS011;64985;46.364;17.008;2023-10-19T15:11:45;12.20;;;6.80;;
76202;SDS011;64985;46.364;17.008;2023-10-19T15:14:49;15.48;;;6.95;;
76202;SDS011;64985;46.364;17.008;2023-10-19T15:17:51;14.40;;;7.30;;
76202;SDS011;64985;46.364;17.008;2023-10-19T15:20:54;9.75;;;7.13;;
76202;SDS011;64985;46.364;17.008;2023-10-19T15:23:56;14.32;;;7.55;;
76202;SDS011;64985;46.364;17.008;2023-10-19T15:26:59;16.20;;;7.72;;
76202;SDS011;64985;46.364;17.008;2023-10-19T15:30:02;9.85;;;7.10;;
76202;SDS011;64985;46.364;17.008;2023-10-19T15:33:07;15.43;;;7.47;;
76202;SDS011;64985;46.364;17.008;2023-10-19T15:36:10;16.02;;;7.05;;
76202;SDS011;64985;46.364;17.008;2023-10-19T15:39:13;13.90;;;6.90;;
76202;SDS011;64985;46.364;17.008;2023-10-19T15:42:15;9.65;;;6.85;;
76202;SDS011;64985;46.364;17.008;2023-10-19T15:45:19;12.45;;;7.07;;
76202;SDS011;64985;46.364;17.008;2023-10-19T15:48:22;10.13;;;7.25;;
76202;SDS011;64985;46.364;17.008;2023-10-19T15:51:25;12.50;;;7.03;;
76202;SDS011;64985;46.364;17.008;2023-10-19T15:54:28;16.45;;;6.82;;
76202;SDS011;64985;46.364;17.008;2023-10-19T15:57:30;14.60;;;7.68;;
76202;SDS011;64985;46.364;17.008;2023-10-19T16:00:34;17.60;;;7.47;;
76202;SDS011;64985;46.364;17.008;2023-10-19T16:03:39;14.35;;;7.22;;
76202;SDS011;64985;46.364;17.008;2023-10-19T16:06:42;12.18;;;6.72;;
76202;SDS011;64985;46.364;17.008;2023-10-19T16:09:46;15.23;;;7.15;;
76202;SDS011;64985;46.364;17.008;2023-10-19T16:12:53;15.98;;;7.28;;
76202;SDS011;64985;46.364;17.008;2023-10-19T16:15:56;11.88;;;8.10;;
76202;SDS011;64985;46.364;17.008;2023-10-19T16:18:58;14.77;;;7.10;;
76202;SDS011;64985;46.364;17.008;2023-10-19T16:22:02;13.98;;;8.75;;
76202;SDS011;64985;46.364;17.008;2023-10-19T16:25:05;14.20;;;8.73;;
76202;SDS011;64985;46.364;17.008;2023-10-19T16:28:07;19.67;;;10.02;;
76202;SDS011;64985;46.364;17.008;2023-10-19T16:31:10;16.75;;;10.77;;
76202;SDS011;64985;46.364;17.008;2023-10-19T16:34:14;16.20;;;10.23;;
76202;SDS011;64985;46.364;17.008;2023-10-19T16:37:20;15.57;;;8.80;;
76202;SDS011;64985;46.364;17.008;2023-10-19T16:40:27;15.45;;;9.40;;
76202;SDS011;64985;46.364;17.008;2023-10-19T16:43:31;15.88;;;9.30;;
76202;SDS011;64985;46.364;17.008;2023-10-19T16:46:38;16.90;;;9.75;;
76202;SDS011;64985;46.364;17.008;2023-10-19T16:49:42;18.42;;;10.18;;
76202;SDS011;64985;46.364;17.008;2023-10-19T16:52:46;18.65;;;8.90;;
76202;SDS011;64985;46.364;17.008;2023-10-19T16:55:51;17.23;;;10.23;;
76202;SDS011;64985;46.364;17.008;2023-10-19T16:59:20;17.70;;;10.68;;
76202;SDS011;64985;46.364;17.008;2023-10-19T17:02:24;18.30;;;11.55;;
76202;SDS011;64985;46.364;17.008;2023-10-19T17:05:29;51.20;;;35.42;;
76202;SDS011;64985;46.364;17.008;2023-10-19T17:08:32;38.47;;;23.80;;
76202;SDS011;64985;46.364;17.008;2023-10-19T17:11:36;25.23;;;16.50;;
76202;SDS011;64985;46.364;17.008;2023-10-19T17:14:41;27.63;;;13.35;;
76202;SDS011;64985;46.364;17.008;2023-10-19T17:17:44;20.77;;;11.25;;
76202;SDS011;64985;46.364;17.008;2023-10-19T17:20:50;26.15;;;12.80;;
76202;SDS011;64985;46.364;17.008;2023-10-19T17:23:54;28.65;;;16.83;;
76202;SDS011;64985;46.364;17.008;2023-10-19T17:26:59;19.17;;;11.25;;
76202;SDS011;64985;46.364;17.008;2023-10-19T17:30:02;16.08;;;8.50;;
76202;SDS011;64985;46.364;17.008;2023-10-19T17:33:07;12.90;;;7.95;;
76202;SDS011;64985;46.364;17.008;2023-10-19T17:36:13;14.65;;;7.30;;
76202;SDS011;64985;46.364;17.008;2023-10-19T17:39:19;18.02;;;7.50;;
76202;SDS011;64985;46.364;17.008;2023-10-19T17:42:25;16.70;;;7.80;;
76202;SDS011;64985;46.364;17.008;2023-10-19T17:45:31;17.70;;;8.30;;
76202;SDS011;64985;46.364;17.008;2023-10-19T17:48:39;15.63;;;8.68;;
76202;SDS011;64985;46.364;17.008;2023-10-19T17:51:44;20.45;;;9.75;;
76202;SDS011;64985;46.364;17.008;2023-10-19T17:54:50;17.85;;;9.30;;
76202;SDS011;64985;46.364;17.008;2023-10-19T17:57:55;24.45;;;12.98;;